Time;durP1;ratioP1;P1;durP2;ratioP2;P2;SDS_P1;SDS_P2;PMS_P1;PMS_P2;Temp;Humidity;BMP_temperature;BMP_pressure;BME280_temperature;BME280_humidity;BME280_pressure;Samples;Min_cycle;Max_cycle;Signal;HPM_P1;HPM_P2
2023/03/03 00:02:48;;;;;;;15.35;11.77;;;10.50;81.30;;;;;;10826980;33;20028;-72
2023/03/03 00:08:50;;;;;;;16.10;11.80;;;10.50;81.30;;;;;;10826157;33;20024;-72
2023/03/03 00:14:52;;;;;;;16.42;10.20;;;10.30;81.30;;;;;;10825379;33;20024;-72
2023/03/03 00:20:57;;;;;;;11.12;7.40;;;10.30;81.30;;;;;;10865708;27;20046;-72
2023/03/03 00:27:08;;;;;;;18.05;13.95;;;10.20;81.30;;;;;;10980547;32;20045;-72
2023/03/03 00:33:27;;;;;;;14.45;11.95;;;10.20;81.30;;;;;;10979276;32;20027;-72
2023/03/03 00:39:35;;;;;;;14.55;11.35;;;10.20;81.10;;;;;;10980074;32;20023;-72
2023/03/03 00:45:45;;;;;;;20.67;14.23;;;10.30;81.20;;;;;;10975892;32;20034;-72
2023/03/03 00:51:47;;;;;;;20.33;14.18;;;10.40;81.40;;;;;;10978671;32;20026;-72
2023/03/03 00:57:49;;;;;;;13.48;9.57;;;10.40;81.10;;;;;;10976602;32;20324;-72
2023/03/03 01:03:52;;;;;;;11.15;8.73;;;10.20;80.90;;;;;;10979307;32;20404;-72
2023/03/03 01:09:54;;;;;;;10.60;8.38;;;10.10;81.00;;;;;;10977735;32;20069;-72
2023/03/03 01:15:57;;;;;;;14.40;10.10;;;9.80;81.20;;;;;;10979678;32;20019;-72
2023/03/03 01:21:59;;;;;;;14.02;9.50;;;9.80;81.40;;;;;;10912189;32;20043;-72
2023/03/03 01:28:01;;;;;;;10.80;7.12;;;9.90;81.30;;;;;;10875587;32;20062;-72
2023/03/03 01:34:03;;;;;;;13.40;9.15;;;9.80;81.30;;;;;;10876339;32;20386;-72
2023/03/03 01:40:11;;;;;;;14.25;11.65;;;9.70;81.10;;;;;;10874971;32;20016;-72
2023/03/03 01:46:38;;;;;;;11.60;8.60;;;9.70;81.00;;;;;;10824441;33;20023;-72
2023/03/03 01:52:45;;;;;;;8.60;6.85;;;9.70;80.90;;;;;;10874054;32;20032;-72
2023/03/03 01:59:12;;;;;;;10.15;6.40;;;9.50;80.90;;;;;;10825731;32;20016;-72
2023/03/03 02:05:15;;;;;;;15.95;11.73;;;9.40;81.00;;;;;;10880163;32;20035;-72
2023/03/03 02:11:20;;;;;;;8.13;6.12;;;9.40;80.90;;;;;;10830151;33;20028;-72
2023/03/03 02:17:22;;;;;;;12.35;7.65;;;9.50;80.70;;;;;;10829421;33;20082;-71
2023/03/03 02:23:48;;;;;;;10.60;7.10;;;9.50;80.70;;;;;;10828602;33;20020;-71
2023/03/03 02:29:51;;;;;;;16.05;12.77;;;9.30;80.80;;;;;;10826732;33;20325;-71
2023/03/03 02:35:56;;;;;;;12.55;6.30;;;9.20;80.80;;;;;;10863851;32;20044;-71
2023/03/03 02:42:23;;;;;;;9.35;6.70;;;9.20;80.70;;;;;;10875197;32;20055;-72
2023/03/03 02:48:25;;;;;;;9.43;6.20;;;9.10;80.70;;;;;;10876725;32;20027;-71
2023/03/03 02:54:29;;;;;;;10.63;6.45;;;9.00;80.80;;;;;;10827724;33;20016;-71
2023/03/03 03:00:32;;;;;;;13.55;7.35;;;9.00;80.60;;;;;;10829387;33;20074;-71
2023/03/03 03:06:35;;;;;;;10.20;5.62;;;9.00;80.70;;;;;;10878030;32;20043;-71
2023/03/03 03:12:39;;;;;;;9.98;6.70;;;9.10;80.80;;;;;;10827562;32;20442;-72
2023/03/03 03:18:44;;;;;;;8.10;5.30;;;9.00;80.80;;;;;;10827693;33;20012;-71
2023/03/03 03:24:46;;;;;;;9.68;6.37;;;8.90;80.60;;;;;;10826800;33;20051;-71
2023/03/03 03:30:50;;;;;;;8.73;6.20;;;8.90;81.00;;;;;;10828405;33;20055;-71
2023/03/03 03:36:53;;;;;;;7.80;5.87;;;8.90;81.50;;;;;;10877284;32;20027;-71
2023/03/03 03:42:56;;;;;;;10.57;8.18;;;8.80;81.30;;;;;;10827544;33;20031;-71
2023/03/03 03:49:22;;;;;;;13.70;7.87;;;8.80;81.20;;;;;;10823291;33;20024;-71
2023/03/03 03:55:24;;;;;;;8.23;5.80;;;8.90;81.40;;;;;;10823219;33;20047;-71
2023/03/03 04:01:27;;;;;;;12.23;7.18;;;8.90;81.60;;;;;;10876386;32;20073;-71
2023/03/03 04:07:30;;;;;;;9.52;5.62;;;8.90;82.10;;;;;;10826840;33;20020;-71
2023/03/03 04:13:34;;;;;;;7.32;5.18;;;8.70;81.90;;;;;;10825618;33;20062;-71
2023/03/03 04:19:36;;;;;;;9.82;6.53;;;8.60;81.90;;;;;;10827495;32;20042;-71
2023/03/03 04:25:40;;;;;;;9.98;6.50;;;8.70;81.60;;;;;;10975698;32;20022;-71
2023/03/03 04:31:46;;;;;;;8.02;4.87;;;8.60;81.40;;;;;;10976844;32;20037;-71
2023/03/03 04:37:48;;;;;;;8.38;5.25;;;8.60;81.40;;;;;;10980368;32;20010;-72
2023/03/03 04:43:50;;;;;;;6.97;4.95;;;8.70;81.10;;;;;;10979669;32;20049;-71
2023/03/03 04:49:52;;;;;;;6.10;4.30;;;8.70;80.80;;;;;;10980747;32;20050;-72
2023/03/03 04:55:55;;;;;;;10.35;6.60;;;8.70;80.40;;;;;;10981311;32;20388;-72
2023/03/03 05:01:59;;;;;;;7.40;4.78;;;8.80;80.30;;;;;;10979953;32;20019;-71
2023/03/03 05:08:01;;;;;;;7.57;5.22;;;8.80;80.00;;;;;;10979806;32;20023;-71
2023/03/03 05:14:04;;;;;;;7.53;3.92;;;8.50;80.20;;;;;;10979136;32;20048;-72
2023/03/03 05:20:09;;;;;;;9.07;5.30;;;8.60;80.40;;;;;;10978133;32;20018;-72
2023/03/03 05:26:12;;;;;;;7.57;5.03;;;8.70;80.20;;;;;;10979489;32;20388;-71
2023/03/03 05:32:14;;;;;;;10.63;7.35;;;8.30;80.20;;;;;;10981235;32;20050;-72
2023/03/03 05:38:16;;;;;;;8.73;4.80;;;8.20;80.90;;;;;;10987246;32;20010;-72
2023/03/03 05:44:18;;;;;;;8.60;6.28;;;8.50;80.70;;;;;;10984413;32;20372;-71
2023/03/03 05:50:23;;;;;;;6.00;3.90;;;8.50;80.20;;;;;;10984250;32;20404;-71
2023/03/03 05:56:25;;;;;;;7.60;5.68;;;8.70;80.00;;;;;;10985081;32;20046;-71
2023/03/03 06:02:28;;;;;;;12.55;5.18;;;8.80;80.00;;;;;;10986453;32;20006;-72
2023/03/03 06:08:31;;;;;;;11.68;6.28;;;8.80;79.50;;;;;;10986127;32;20018;-71
2023/03/03 06:14:33;;;;;;;7.25;4.87;;;8.50;79.70;;;;;;10985651;32;20018;-72
2023/03/03 06:20:37;;;;;;;8.52;6.00;;;8.50;80.40;;;;;;10958233;32;20398;-72
2023/03/03 06:26:39;;;;;;;10.60;7.00;;;8.80;79.70;;;;;;10829592;33;20031;-72
2023/03/03 06:32:41;;;;;;;9.27;6.43;;;8.80;79.90;;;;;;10829350;33;20382;-72
2023/03/03 06:38:45;;;;;;;11.23;5.85;;;9.20;79.60;;;;;;10828129;33;20020;-72
2023/03/03 06:44:47;;;;;;;7.30;5.12;;;9.30;79.10;;;;;;10827613;32;20047;-71
2023/03/03 06:50:50;;;;;;;8.05;5.20;;;8.90;79.40;;;;;;10828963;33;20028;-71
2023/03/03 06:56:57;;;;;;;13.85;10.32;;;8.70;80.40;;;;;;10828772;33;20047;-72
2023/03/03 07:03:21;;;;;;;9.80;7.20;;;8.90;80.90;;;;;;10814476;32;20036;-72
2023/03/03 07:09:32;;;;;;;9.75;6.93;;;9.00;80.40;;;;;;10789901;33;20028;-73
2023/03/03 07:15:35;;;;;;;11.52;9.57;;;8.70;80.70;;;;;;10819014;33;20414;-72
2023/03/03 07:21:38;;;;;;;8.45;5.43;;;8.40;81.40;;;;;;10825666;33;20038;-73
2023/03/03 07:27:40;;;;;;;11.12;8.48;;;8.50;82.10;;;;;;10827822;33;20043;-73
2023/03/03 07:33:44;;;;;;;7.12;5.37;;;8.70;82.20;;;;;;10823572;33;20060;-73
2023/03/03 07:39:49;;;;;;;6.80;4.85;;;8.70;82.20;;;;;;10827053;33;20420;-73
2023/03/03 07:46:13;;;;;;;11.95;8.38;;;8.70;82.20;;;;;;10822542;33;20046;-73
2023/03/03 07:52:29;;;;;;;12.15;7.80;;;8.60;82.20;;;;;;10877465;32;20314;-73
2023/03/03 07:58:40;;;;;;;9.00;6.50;;;8.90;82.90;;;;;;10822246;32;20291;-73
2023/03/03 08:04:51;;;;;;;13.57;9.38;;;9.30;83.40;;;;;;10826541;33;20074;-73
2023/03/03 08:10:54;;;;;;;9.85;6.43;;;9.40;83.00;;;;;;10863695;32;20062;-73
2023/03/03 08:16:57;;;;;;;12.85;7.15;;;9.30;82.70;;;;;;10876089;32;20040;-73
2023/03/03 08:23:03;;;;;;;10.32;6.72;;;9.30;83.40;;;;;;10250389;33;17041192;-73
2023/03/03 08:29:11;;;;;;;9.57;6.68;;;9.40;83.70;;;;;;10714672;33;20394;-73
2023/03/03 08:35:14;;;;;;;10.00;5.20;;;9.60;83.70;;;;;;10714937;33;20039;-73
2023/03/03 08:41:16;;;;;;;7.90;5.68;;;9.70;83.70;;;;;;10715725;33;20020;-73
2023/03/03 08:47:18;;;;;;;9.68;5.82;;;9.90;83.60;;;;;;10713479;33;20071;-72
2023/03/03 08:53:21;;;;;;;12.88;6.37;;;9.90;82.90;;;;;;10714411;32;20063;-73
2023/03/03 08:59:23;;;;;;;8.73;4.75;;;10.10;83.80;;;;;;10714716;33;20048;-73
2023/03/03 09:05:27;;;;;;;6.80;4.25;;;10.40;84.70;;;;;;10713628;33;20140;-73
2023/03/03 09:11:29;;;;;;;8.48;4.87;;;10.70;84.20;;;;;;10721151;33;20029;-73
2023/03/03 09:17:34;;;;;;;15.07;6.85;;;10.80;84.30;;;;;;10717874;33;20036;-73
2023/03/03 09:23:47;;;;;;;9.20;6.55;;;11.00;83.60;;;;;;10742151;33;20028;-73
2023/03/03 09:29:49;;;;;;;4.32;3.08;;;11.20;84.50;;;;;;10756920;33;20043;-73
2023/03/03 09:36:13;;;;;;;6.97;3.55;;;11.50;84.00;;;;;;10744976;33;20047;-73
2023/03/03 09:42:34;;;;;;;7.43;5.05;;;11.60;83.90;;;;;;10755547;33;20025;-73
2023/03/03 09:48:46;;;;;;;5.37;3.42;;;11.60;84.70;;;;;;10756920;33;20024;-72
2023/03/03 09:55:07;;;;;;;4.00;2.72;;;11.80;85.30;;;;;;10757393;33;20008;-72
2023/03/03 10:01:21;;;;;;;6.80;3.75;;;12.20;85.30;;;;;;10757095;33;20017;-72
2023/03/03 10:07:47;;;;;;;10.63;3.97;;;12.20;85.20;;;;;;10755098;33;20060;-72
2023/03/03 10:14:09;;;;;;;4.95;3.15;;;12.30;85.40;;;;;;10739628;33;20020;-72
2023/03/03 10:20:33;;;;;;;5.22;2.72;;;12.40;84.70;;;;;;10755030;33;20045;-72
2023/03/03 10:26:57;;;;;;;3.92;2.47;;;12.60;85.30;;;;;;10739028;33;20063;-72
2023/03/03 10:33:19;;;;;;;4.60;3.33;;;12.90;84.90;;;;;;10741662;33;20044;-72
2023/03/03 10:39:23;;;;;;;8.15;3.28;;;13.10;83.70;;;;;;10754170;33;20058;-73
2023/03/03 10:45:44;;;;;;;4.40;2.62;;;13.30;84.20;;;;;;10754518;33;20159;-74
2023/03/03 10:52:02;;;;;;;8.48;5.15;;;13.50;82.90;;;;;;10755994;33;20025;-73
2023/03/03 10:58:31;;;;;;;5.18;3.67;;;13.50;83.50;;;;;;10754736;33;20335;-73
2023/03/03 11:04:58;;;;;;;7.40;5.50;;;13.70;82.70;;;;;;10742201;32;20051;-72
2023/03/03 11:11:17;;;;;;;4.50;2.83;;;13.70;82.80;;;;;;10739100;33;20070;-73
2023/03/03 11:17:50;;;;;;;9.30;5.17;;;13.70;82.90;;;;;;10750320;33;20024;-73
2023/03/03 11:24:00;;;;;;;6.43;4.07;;;13.80;82.60;;;;;;10754358;33;20035;-73
2023/03/03 11:30:23;;;;;;;9.75;4.35;;;14.00;83.20;;;;;;10751258;33;20055;-73
2023/03/03 11:36:40;;;;;;;7.68;4.75;;;14.20;82.70;;;;;;10754939;33;20017;-73
2023/03/03 11:43:23;;;;;;;7.57;4.87;;;14.50;82.20;;;;;;10753577;33;20056;-73
2023/03/03 11:49:56;;;;;;;4.45;3.28;;;14.60;82.50;;;;;;10828134;32;20039;-73
2023/03/03 11:56:34;;;;;;;6.57;4.72;;;14.70;82.40;;;;;;10775278;33;20039;-73
2023/03/03 12:02:57;;;;;;;6.15;3.65;;;14.80;82.00;;;;;;10753911;33;20033;-73
2023/03/03 12:09:36;;;;;;;8.23;5.12;;;14.70;82.60;;;;;;10753915;33;20047;-73
2023/03/03 12:15:53;;;;;;;10.40;7.00;;;14.70;82.00;;;;;;10738927;33;20355;-73
2023/03/03 12:22:19;;;;;;;5.97;3.10;;;14.70;82.90;;;;;;10747231;33;20020;-73
2023/03/03 12:29:05;;;;;;;10.85;5.90;;;14.70;83.20;;;;;;10637336;32;20115;-73
2023/03/03 12:35:16;;;;;;;11.63;4.70;;;14.60;82.30;;;;;;10721829;33;20051;-73
2023/03/03 12:41:34;;;;;;;7.32;3.92;;;14.50;83.60;;;;;;10737823;33;20417;-73
2023/03/03 12:48:00;;;;;;;7.57;5.93;;;14.40;83.60;;;;;;10738113;33;20331;-73
2023/03/03 12:54:20;;;;;;;11.98;6.30;;;14.40;83.50;;;;;;10750652;33;20025;-72
2023/03/03 13:00:24;;;;;;;5.68;3.75;;;14.30;83.00;;;;;;10751746;33;20103;-72
2023/03/03 13:06:35;;;;;;;7.40;4.95;;;14.40;83.20;;;;;;10752198;33;20375;-72
2023/03/03 13:12:38;;;;;;;11.80;6.22;;;14.50;83.00;;;;;;10735143;32;20029;-72
2023/03/03 13:25:55;;;;;;;8.30;4.53;;;14.60;83.10;;;;;;10710599;33;20033;-73
2023/03/03 13:32:07;;;;;;;5.77;4.03;;;14.90;81.60;;;;;;10696598;33;20371;-73
2023/03/03 13:38:14;;;;;;;6.90;4.47;;;15.30;81.20;;;;;;10698878;33;20021;-73
2023/03/03 13:44:27;;;;;;;10.82;5.55;;;15.60;81.10;;;;;;10681201;33;20033;-73
2023/03/03 13:50:34;;;;;;;8.85;4.75;;;15.60;80.60;;;;;;10694663;32;20057;-73
2023/03/03 13:56:48;;;;;;;8.18;3.58;;;15.30;80.20;;;;;;10736142;33;20047;-73
2023/03/03 14:02:54;;;;;;;5.70;3.70;;;15.40;81.80;;;;;;10720768;32;20024;-73
2023/03/03 14:09:17;;;;;;;4.57;3.15;;;15.60;82.40;;;;;;10753275;33;20055;-73
2023/03/03 14:15:30;;;;;;;6.53;3.85;;;15.70;83.40;;;;;;10756242;33;20044;-73
2023/03/03 14:21:45;;;;;;;5.70;3.80;;;15.60;83.90;;;;;;10755894;33;20129;-73
2023/03/03 14:28:11;;;;;;;4.82;2.97;;;15.60;83.90;;;;;;10754862;33;20342;-73
2023/03/03 14:34:22;;;;;;;7.50;5.05;;;15.60;85.00;;;;;;10755666;33;20052;-73
2023/03/03 14:40:31;;;;;;;7.57;4.93;;;15.80;85.00;;;;;;10755551;33;20292;-73
2023/03/03 14:46:36;;;;;;;7.43;4.97;;;15.80;85.00;;;;;;10754976;33;20040;-73
2023/03/03 14:52:39;;;;;;;6.50;3.83;;;15.70;85.30;;;;;;10751470;33;20047;-73
2023/03/03 14:58:41;;;;;;;3.17;2.22;;;15.80;85.50;;;;;;10754355;33;20308;-73
2023/03/03 15:04:45;;;;;;;6.12;3.80;;;15.90;85.90;;;;;;10752750;33;20048;-73
2023/03/03 15:10:47;;;;;;;6.10;4.03;;;15.90;86.10;;;;;;10754660;33;20299;-73
2023/03/03 15:16:51;;;;;;;6.72;4.50;;;16.00;86.50;;;;;;10753923;33;20391;-73
2023/03/03 15:23:27;;;;;;;11.85;6.62;;;15.90;86.70;;;;;;10753576;33;20040;-73
2023/03/03 15:29:36;;;;;;;7.85;4.55;;;15.90;85.90;;;;;;10712006;32;20075;-73
2023/03/03 15:35:53;;;;;;;12.77;6.62;;;15.90;86.50;;;;;;10701654;33;20419;-73
2023/03/03 15:42:14;;;;;;;6.85;4.50;;;15.90;85.20;;;;;;10717435;33;20039;-73
2023/03/03 15:48:33;;;;;;;7.55;4.55;;;15.70;85.70;;;;;;10717744;33;20335;-73
2023/03/03 15:55:09;;;;;;;9.80;5.45;;;15.50;85.80;;;;;;10716101;33;20033;-73
2023/03/03 16:01:28;;;;;;;7.53;4.72;;;15.60;86.20;;;;;;10712291;33;20049;-73
2023/03/03 16:07:43;;;;;;;9.73;5.45;;;15.70;86.40;;;;;;10712900;33;20040;-73
2023/03/03 16:14:14;;;;;;;7.72;5.25;;;16.20;86.40;;;;;;10717261;33;20410;-73
2023/03/03 16:20:37;;;;;;;9.27;4.62;;;17.50;84.30;;;;;;10732822;27;20047;-73
2023/03/03 16:26:50;;;;;;;7.50;4.45;;;18.10;83.50;;;;;;10824867;33;20058;-73
2023/03/03 16:33:30;;;;;;;7.70;5.10;;;18.70;82.60;;;;;;10825164;33;20043;-74
2023/03/03 16:39:53;;;;;;;6.50;4.32;;;18.40;82.90;;;;;;10825626;33;20471;-73
2023/03/03 16:46:18;;;;;;;8.30;4.75;;;17.60;84.70;;;;;;10811170;33;20036;-73
2023/03/03 16:52:53;;;;;;;8.45;5.30;;;16.80;85.80;;;;;;10812868;33;20444;-72
2023/03/03 16:59:28;;;;;;;9.13;5.05;;;16.20;86.40;;;;;;10708378;32;20052;-72
2023/03/03 17:05:51;;;;;;;9.52;5.80;;;15.70;86.80;;;;;;10714090;32;20063;-72
2023/03/03 17:12:18;;;;;;;10.70;5.37;;;15.30;86.90;;;;;;10709548;32;20041;-72
2023/03/03 17:19:02;;;;;;;7.37;5.05;;;15.00;87.00;;;;;;10709905;32;20041;-71
2023/03/03 17:25:56;;;;;;;8.48;6.57;;;14.80;87.00;;;;;;10753287;33;20471;-71
2023/03/03 17:32:35;;;;;;;10.00;6.03;;;14.60;86.90;;;;;;10657620;33;20028;-71
2023/03/03 17:39:07;;;;;;;7.47;6.07;;;14.10;87.20;;;;;;10699775;33;20033;-71
2023/03/03 17:45:37;;;;;;;10.73;7.28;;;14.00;87.40;;;;;;10643084;33;20029;-71
2023/03/03 17:52:07;;;;;;;8.82;6.45;;;13.90;87.10;;;;;;10670995;33;20057;-71
2023/03/03 17:58:28;;;;;;;9.00;7.03;;;13.90;87.00;;;;;;10688804;33;20052;-72
2023/03/03 18:05:01;;;;;;;11.15;8.23;;;14.10;87.00;;;;;;10757860;33;20058;-72
2023/03/03 18:11:45;;;;;;;14.00;10.15;;;14.30;86.80;;;;;;10757090;33;20343;-72
2023/03/03 18:17:50;;;;;;;13.82;10.05;;;14.40;86.20;;;;;;10757873;33;20066;-72
2023/03/03 18:24:45;;;;;;;15.73;10.50;;;14.30;85.60;;;;;;10751515;32;20070;-72
2023/03/03 18:31:03;;;;;;;13.68;9.18;;;14.30;84.90;;;;;;10853116;32;20024;-71
2023/03/03 18:37:29;;;;;;;12.95;9.23;;;14.30;84.40;;;;;;10855333;32;20024;-72
2023/03/03 18:43:47;;;;;;;11.48;8.30;;;14.10;84.20;;;;;;10826727;32;20032;-72
2023/03/03 18:49:54;;;;;;;12.73;9.07;;;14.00;84.00;;;;;;10826873;32;20048;-72
2023/03/03 18:56:01;;;;;;;20.35;8.93;;;13.80;83.80;;;;;;10824200;32;20047;-72
2023/03/03 19:02:12;;;;;;;13.68;9.77;;;13.70;83.80;;;;;;10824027;32;20098;-71
2023/03/03 19:08:28;;;;;;;10.73;8.73;;;13.80;83.50;;;;;;10824805;32;20091;-71
2023/03/03 19:14:36;;;;;;;11.50;9.15;;;13.70;83.30;;;;;;10828320;32;20062;-71
2023/03/03 19:20:50;;;;;;;10.85;9.00;;;13.40;83.30;;;;;;10771285;32;20027;-71
2023/03/03 19:27:08;;;;;;;12.10;9.18;;;13.20;83.20;;;;;;10791231;33;20391;-71
2023/03/03 19:33:29;;;;;;;11.48;8.30;;;13.10;83.40;;;;;;10788727;33;20047;-71
2023/03/03 19:39:52;;;;;;;13.50;9.52;;;12.80;83.70;;;;;;10777008;33;20078;-70
2023/03/03 19:46:16;;;;;;;11.57;9.35;;;12.90;83.50;;;;;;10789177;33;20063;-71
2023/03/03 19:52:30;;;;;;;10.88;8.63;;;13.00;82.90;;;;;;10788702;33;20020;-71
2023/03/03 19:58:59;;;;;;;25.08;9.85;;;12.90;82.90;;;;;;10789549;33;20016;-71
2023/03/03 20:05:04;;;;;;;10.32;8.13;;;12.80;82.70;;;;;;10776288;33;20021;-71
2023/03/03 20:11:36;;;;;;;8.70;6.37;;;12.70;82.80;;;;;;10774605;33;20040;-71
2023/03/03 20:17:46;;;;;;;9.52;7.32;;;12.60;82.70;;;;;;10788849;33;20024;-71
2023/03/03 20:24:02;;;;;;;11.57;7.05;;;12.40;82.90;;;;;;10774862;33;20063;-71
2023/03/03 20:30:40;;;;;;;10.50;6.70;;;12.30;82.90;;;;;;10771985;33;20067;-71
2023/03/03 20:44:02;;;;;;;10.05;6.95;;;12.20;82.70;;;;;;10789022;33;20025;-71
2023/03/03 20:50:45;;;;;;;12.43;7.97;;;12.10;82.80;;;;;;10775247;32;20076;-71
2023/03/03 20:57:12;;;;;;;12.70;7.95;;;11.90;82.50;;;;;;10784323;33;20043;-71
2023/03/03 21:03:36;;;;;;;11.12;7.32;;;11.80;83.00;;;;;;10787093;33;20094;-71
2023/03/03 21:10:30;;;;;;;10.50;7.68;;;12.00;83.00;;;;;;10794176;33;20341;-72
2023/03/03 21:16:34;;;;;;;11.02;8.32;;;12.00;82.60;;;;;;10681034;32;20052;-72
2023/03/03 21:22:36;;;;;;;9.13;6.82;;;11.90;82.40;;;;;;10680611;33;20037;-71
2023/03/03 21:28:57;;;;;;;10.15;7.55;;;11.80;82.20;;;;;;10681368;32;20061;-71
2023/03/03 21:35:12;;;;;;;13.57;8.43;;;11.80;82.40;;;;;;10681307;32;20064;-71
2023/03/03 21:41:19;;;;;;;10.10;7.18;;;11.80;82.30;;;;;;10678552;32;20037;-72
2023/03/03 21:47:27;;;;;;;11.88;8.70;;;11.90;82.20;;;;;;10682955;32;20029;-71
2023/03/03 21:53:29;;;;;;;12.13;8.30;;;11.90;82.00;;;;;;10792798;33;20016;-72
2023/03/03 21:59:31;;;;;;;11.23;8.30;;;12.00;81.90;;;;;;10794023;33;20012;-71
2023/03/03 22:05:33;;;;;;;13.80;10.30;;;11.90;82.10;;;;;;10791600;33;20051;-72
2023/03/03 22:11:37;;;;;;;11.10;8.27;;;11.90;81.80;;;;;;10793112;33;20016;-71
2023/03/03 22:17:39;;;;;;;19.08;12.20;;;11.90;81.90;;;;;;10789347;33;20028;-72
2023/03/03 22:23:41;;;;;;;10.95;7.25;;;11.80;81.80;;;;;;10792096;33;20027;-72
2023/03/03 22:29:43;;;;;;;14.23;9.23;;;11.70;81.60;;;;;;10791811;33;20063;-72
2023/03/03 22:35:45;;;;;;;13.32;9.93;;;11.70;81.70;;;;;;10791467;33;20390;-72
2023/03/03 22:41:47;;;;;;;13.23;8.85;;;11.70;81.70;;;;;;10778580;33;20028;-72
2023/03/03 22:47:49;;;;;;;13.43;9.35;;;11.60;81.70;;;;;;10791410;33;20019;-72
2023/03/03 22:53:50;;;;;;;12.32;8.10;;;11.70;81.80;;;;;;10791809;33;20418;-72
2023/03/03 22:59:52;;;;;;;12.48;8.65;;;11.60;82.40;;;;;;10789195;33;20021;-72
2023/03/03 23:05:54;;;;;;;7.95;4.80;;;11.60;82.90;;;;;;10791939;33;20082;-72
2023/03/03 23:11:56;;;;;;;11.60;8.02;;;11.50;82.70;;;;;;10790533;33;20028;-72
2023/03/03 23:17:58;;;;;;;9.98;7.37;;;11.30;82.60;;;;;;10788924;33;20020;-72
2023/03/03 23:24:00;;;;;;;8.15;6.25;;;11.30;82.50;;;;;;10786966;33;20021;-72
2023/03/03 23:30:03;;;;;;;11.93;8.68;;;11.30;82.30;;;;;;10789597;33;20055;-73
2023/03/03 23:36:05;;;;;;;12.55;9.73;;;11.20;82.20;;;;;;10791086;33;20333;-74
2023/03/03 23:42:08;;;;;;;9.15;6.25;;;11.20;82.10;;;;;;10776670;33;20338;-73
2023/03/03 23:48:10;;;;;;;11.65;9.25;;;11.20;82.20;;;;;;10786141;33;20359;-73
2023/03/03 23:54:12;;;;;;;12.27;8.85;;;11.10;82.30;;;;;;10790011;33;20028;-73
